sensor_id;sensor_type;location;lat;lon;timestamp;P1;durP1;ratioP1;P2;durP2;ratioP2
4939;SDS011;2485;49.326;7.214;2023-03-11T06:31:41;2.90;;;2.40;;
4939;SDS011;2485;49.326;7.214;2023-03-11T06:34:08;12.33;;;2.70;;
4939;SDS011;2485;49.326;7.214;2023-03-11T06:36:34;5.13;;;2.87;;
4939;SDS011;2485;49.326;7.214;2023-03-11T06:39:01;10.57;;;3.90;;
4939;SDS011;2485;49.326;7.214;2023-03-11T06:41:28;12.20;;;4.07;;
4939;SDS011;2485;49.326;7.214;2023-03-11T06:43:56;16.17;;;4.90;;
4939;SDS011;2485;49.326;7.214;2023-03-11T06:46:23;12.90;;;4.60;;
4939;SDS011;2485;49.326;7.214;2023-03-11T06:48:51;7.97;;;4.43;;
4939;SDS011;2485;49.326;7.214;2023-03-11T06:51:17;30.37;;;11.33;;
4939;SDS011;2485;49.326;7.214;2023-03-11T06:53:47;15.30;;;7.03;;
4939;SDS011;2485;49.326;7.214;2023-03-11T06:56:13;15.23;;;5.83;;
4939;SDS011;2485;49.326;7.214;2023-03-11T06:58:40;11.50;;;4.30;;
4939;SDS011;2485;49.326;7.214;2023-03-11T07:01:09;7.40;;;3.10;;
4939;SDS011;2485;49.326;7.214;2023-03-11T07:03:35;8.30;;;4.80;;
4939;SDS011;2485;49.326;7.214;2023-03-11T07:06:11;12.23;;;6.57;;
4939;SDS011;2485;49.326;7.214;2023-03-11T07:08:37;8.60;;;4.30;;
4939;SDS011;2485;49.326;7.214;2023-03-11T07:11:05;16.33;;;4.90;;
4939;SDS011;2485;49.326;7.214;2023-03-11T07:13:31;13.93;;;5.10;;
4939;SDS011;2485;49.326;7.214;2023-03-11T07:15:59;11.27;;;4.13;;
4939;SDS011;2485;49.326;7.214;2023-03-11T07:18:25;6.90;;;3.80;;
4939;SDS011;2485;49.326;7.214;2023-03-11T07:20:51;6.03;;;3.97;;
4939;SDS011;2485;49.326;7.214;2023-03-11T07:23:19;6.23;;;4.03;;
4939;SDS011;2485;49.326;7.214;2023-03-11T07:25:46;6.70;;;2.90;;
4939;SDS011;2485;49.326;7.214;2023-03-11T07:28:12;10.17;;;3.30;;
4939;SDS011;2485;49.326;7.214;2023-03-11T07:30:39;4.90;;;2.60;;
4939;SDS011;2485;49.326;7.214;2023-03-11T07:33:05;13.23;;;3.00;;
4939;SDS011;2485;49.326;7.214;2023-03-11T07:35:33;9.10;;;2.60;;
4939;SDS011;2485;49.326;7.214;2023-03-11T07:38:00;10.60;;;3.17;;
4939;SDS011;2485;49.326;7.214;2023-03-11T07:40:27;5.03;;;2.70;;
4939;SDS011;2485;49.326;7.214;2023-03-11T07:42:54;8.70;;;2.70;;
4939;SDS011;2485;49.326;7.214;2023-03-11T07:45:20;10.77;;;2.83;;
4939;SDS011;2485;49.326;7.214;2023-03-11T07:47:46;4.03;;;2.40;;
4939;SDS011;2485;49.326;7.214;2023-03-11T07:50:13;6.00;;;2.03;;
4939;SDS011;2485;49.326;7.214;2023-03-11T07:52:41;4.10;;;2.17;;
4939;SDS011;2485;49.326;7.214;2023-03-11T07:55:07;4.27;;;2.27;;
4939;SDS011;2485;49.326;7.214;2023-03-11T07:57:35;4.40;;;2.07;;
4939;SDS011;2485;49.326;7.214;2023-03-11T08:00:02;9.00;;;2.80;;
4939;SDS011;2485;49.326;7.214;2023-03-11T08:02:29;7.17;;;1.80;;
4939;SDS011;2485;49.326;7.214;2023-03-11T08:04:56;7.10;;;2.13;;
4939;SDS011;2485;49.326;7.214;2023-03-11T08:07:22;9.43;;;2.53;;
4939;SDS011;2485;49.326;7.214;2023-03-11T08:09:49;4.10;;;1.90;;
4939;SDS011;2485;49.326;7.214;2023-03-11T08:12:15;3.90;;;1.90;;
4939;SDS011;2485;49.326;7.214;2023-03-11T08:14:50;8.17;;;1.97;;
4939;SDS011;2485;49.326;7.214;2023-03-11T08:21:18;4.17;;;1.90;;
4939;SDS011;2485;49.326;7.214;2023-03-11T08:23:05;6.60;;;2.20;;
4939;SDS011;2485;49.326;7.214;2023-03-11T08:25:37;4.97;;;2.77;;
4939;SDS011;2485;49.326;7.214;2023-03-11T08:28:07;7.50;;;3.37;;
4939;SDS011;2485;49.326;7.214;2023-03-11T08:30:47;4.97;;;2.00;;
4939;SDS011;2485;49.326;7.214;2023-03-11T08:33:32;5.00;;;2.10;;
4939;SDS011;2485;49.326;7.214;2023-03-11T08:36:06;4.30;;;1.90;;
4939;SDS011;2485;49.326;7.214;2023-03-11T08:38:33;4.20;;;1.70;;
4939;SDS011;2485;49.326;7.214;2023-03-11T08:40:59;4.43;;;1.87;;
4939;SDS011;2485;49.326;7.214;2023-03-11T08:43:26;9.23;;;2.40;;
4939;SDS011;2485;49.326;7.214;2023-03-11T08:45:54;2.97;;;1.83;;
4939;SDS011;2485;49.326;7.214;2023-03-11T08:48:21;4.30;;;1.20;;
4939;SDS011;2485;49.326;7.214;2023-03-11T08:50:55;2.27;;;1.50;;
4939;SDS011;2485;49.326;7.214;2023-03-11T08:53:24;4.10;;;1.73;;
4939;SDS011;2485;49.326;7.214;2023-03-11T08:56:02;15.13;;;1.70;;
4939;SDS011;2485;49.326;7.214;2023-03-11T08:58:30;4.90;;;1.57;;
4939;SDS011;2485;49.326;7.214;2023-03-11T09:00:58;3.83;;;1.40;;
4939;SDS011;2485;49.326;7.214;2023-03-11T09:03:25;3.83;;;1.57;;
4939;SDS011;2485;49.326;7.214;2023-03-11T09:06:01;5.60;;;3.73;;
4939;SDS011;2485;49.326;7.214;2023-03-11T09:11:35;4.47;;;1.40;;
4939;SDS011;2485;49.326;7.214;2023-03-11T09:14:02;5.13;;;1.10;;
4939;SDS011;2485;49.326;7.214;2023-03-11T09:16:29;6.20;;;1.67;;
4939;SDS011;2485;49.326;7.214;2023-03-11T09:18:56;3.40;;;1.27;;
4939;SDS011;2485;49.326;7.214;2023-03-11T09:21:24;3.63;;;1.60;;
4939;SDS011;2485;49.326;7.214;2023-03-11T09:23:52;1.83;;;1.10;;
4939;SDS011;2485;49.326;7.214;2023-03-11T09:26:27;7.40;;;1.07;;
4939;SDS011;2485;49.326;7.214;2023-03-11T09:28:54;8.00;;;1.67;;
4939;SDS011;2485;49.326;7.214;2023-03-11T09:31:37;2.10;;;0.90;;
4939;SDS011;2485;49.326;7.214;2023-03-11T09:34:04;2.30;;;1.03;;
4939;SDS011;2485;49.326;7.214;2023-03-11T09:36:42;5.73;;;1.03;;
4939;SDS011;2485;49.326;7.214;2023-03-11T09:39:08;2.80;;;1.60;;
4939;SDS011;2485;49.326;7.214;2023-03-11T09:41:49;3.57;;;1.23;;
4939;SDS011;2485;49.326;7.214;2023-03-11T09:44:38;3.13;;;1.00;;
4939;SDS011;2485;49.326;7.214;2023-03-11T09:50:11;4.50;;;1.23;;
4939;SDS011;2485;49.326;7.214;2023-03-11T09:52:42;4.83;;;1.63;;
4939;SDS011;2485;49.326;7.214;2023-03-11T09:55:29;2.70;;;1.17;;
4939;SDS011;2485;49.326;7.214;2023-03-11T09:59:01;3.33;;;1.07;;
4939;SDS011;2485;49.326;7.214;2023-03-11T10:01:16;4.83;;;1.73;;
4939;SDS011;2485;49.326;7.214;2023-03-11T10:06:43;1.93;;;1.20;;
4939;SDS011;2485;49.326;7.214;2023-03-11T10:09:14;2.30;;;1.10;;
4939;SDS011;2485;49.326;7.214;2023-03-11T10:12:04;7.13;;;1.60;;
4939;SDS011;2485;49.326;7.214;2023-03-11T10:14:49;1.30;;;0.90;;
4939;SDS011;2485;49.326;7.214;2023-03-11T10:17:21;5.27;;;1.37;;
4939;SDS011;2485;49.326;7.214;2023-03-11T10:19:55;10.90;;;1.60;;
4939;SDS011;2485;49.326;7.214;2023-03-11T10:22:28;2.57;;;1.23;;
4939;SDS011;2485;49.326;7.214;2023-03-11T10:25:02;3.73;;;1.40;;
4939;SDS011;2485;49.326;7.214;2023-03-11T10:27:30;9.80;;;2.20;;
4939;SDS011;2485;49.326;7.214;2023-03-11T10:30:02;7.40;;;2.50;;
4939;SDS011;2485;49.326;7.214;2023-03-11T10:35:49;2.77;;;1.00;;
4939;SDS011;2485;49.326;7.214;2023-03-11T10:38:20;2.13;;;1.07;;
4939;SDS011;2485;49.326;7.214;2023-03-11T10:40:49;4.97;;;1.67;;
4939;SDS011;2485;49.326;7.214;2023-03-11T10:43:18;1.63;;;1.20;;
4939;SDS011;2485;49.326;7.214;2023-03-11T10:45:46;2.87;;;1.30;;
4939;SDS011;2485;49.326;7.214;2023-03-11T10:48:15;2.37;;;1.03;;
4939;SDS011;2485;49.326;7.214;2023-03-11T10:50:45;2.53;;;1.30;;
4939;SDS011;2485;49.326;7.214;2023-03-11T10:53:16;5.10;;;1.40;;
4939;SDS011;2485;49.326;7.214;2023-03-11T10:55:54;7.10;;;1.60;;
4939;SDS011;2485;49.326;7.214;2023-03-11T10:58:24;6.80;;;1.57;;
4939;SDS011;2485;49.326;7.214;2023-03-11T11:01:01;2.40;;;1.40;;
4939;SDS011;2485;49.326;7.214;2023-03-11T11:03:28;4.20;;;2.00;;
4939;SDS011;2485;49.326;7.214;2023-03-11T11:05:59;7.70;;;1.73;;
4939;SDS011;2485;49.326;7.214;2023-03-11T11:08:26;3.67;;;1.40;;
4939;SDS011;2485;49.326;7.214;2023-03-11T11:10:55;4.47;;;1.33;;
4939;SDS011;2485;49.326;7.214;2023-03-11T11:13:22;6.20;;;1.60;;
4939;SDS011;2485;49.326;7.214;2023-03-11T11:15:53;10.30;;;2.00;;
4939;SDS011;2485;49.326;7.214;2023-03-11T11:18:20;2.87;;;1.37;;
4939;SDS011;2485;49.326;7.214;2023-03-11T11:20:51;3.40;;;1.20;;
4939;SDS011;2485;49.326;7.214;2023-03-11T11:23:23;3.83;;;1.40;;
4939;SDS011;2485;49.326;7.214;2023-03-11T11:25:56;2.70;;;1.27;;
4939;SDS011;2485;49.326;7.214;2023-03-11T11:28:22;2.80;;;1.27;;
4939;SDS011;2485;49.326;7.214;2023-03-11T11:30:53;9.20;;;1.50;;
4939;SDS011;2485;49.326;7.214;2023-03-11T11:33:23;1.93;;;1.20;;
4939;SDS011;2485;49.326;7.214;2023-03-11T11:35:50;2.20;;;1.27;;
4939;SDS011;2485;49.326;7.214;2023-03-11T11:38:17;4.30;;;1.27;;
4939;SDS011;2485;49.326;7.214;2023-03-11T11:40:46;2.13;;;1.03;;
4939;SDS011;2485;49.326;7.214;2023-03-11T11:43:15;3.63;;;1.27;;
4939;SDS011;2485;49.326;7.214;2023-03-11T11:45:43;4.97;;;1.40;;
4939;SDS011;2485;49.326;7.214;2023-03-11T11:48:13;3.87;;;1.20;;
4939;SDS011;2485;49.326;7.214;2023-03-11T11:50:41;3.67;;;1.20;;
4939;SDS011;2485;49.326;7.214;2023-03-11T11:55:50;2.90;;;1.23;;
4939;SDS011;2485;49.326;7.214;2023-03-11T11:58:19;3.10;;;1.30;;
4939;SDS011;2485;49.326;7.214;2023-03-11T12:00:49;12.63;;;1.57;;
4939;SDS011;2485;49.326;7.214;2023-03-11T12:03:32;4.17;;;1.20;;
4939;SDS011;2485;49.326;7.214;2023-03-11T12:06:08;4.30;;;1.50;;
4939;SDS011;2485;49.326;7.214;2023-03-11T12:08:37;3.30;;;1.50;;
4939;SDS011;2485;49.326;7.214;2023-03-11T12:11:05;2.20;;;1.33;;
4939;SDS011;2485;49.326;7.214;2023-03-11T12:13:42;5.67;;;1.60;;
4939;SDS011;2485;49.326;7.214;2023-03-11T12:16:13;2.60;;;1.47;;
4939;SDS011;2485;49.326;7.214;2023-03-11T12:18:41;2.20;;;1.10;;
4939;SDS011;2485;49.326;7.214;2023-03-11T12:21:11;2.40;;;1.10;;
4939;SDS011;2485;49.326;7.214;2023-03-11T12:23:49;2.80;;;1.30;;
4939;SDS011;2485;49.326;7.214;2023-03-11T12:26:22;1.43;;;1.10;;
4939;SDS011;2485;49.326;7.214;2023-03-11T12:28:51;5.77;;;1.43;;
4939;SDS011;2485;49.326;7.214;2023-03-11T12:31:20;2.27;;;1.43;;
4939;SDS011;2485;49.326;7.214;2023-03-11T12:33:49;3.37;;;1.60;;
4939;SDS011;2485;49.326;7.214;2023-03-11T12:36:19;1.57;;;1.00;;
4939;SDS011;2485;49.326;7.214;2023-03-11T12:38:47;5.23;;;1.30;;
4939;SDS011;2485;49.326;7.214;2023-03-11T12:41:26;11.50;;;1.50;;
4939;SDS011;2485;49.326;7.214;2023-03-11T12:43:58;7.30;;;1.30;;
4939;SDS011;2485;49.326;7.214;2023-03-11T12:49:10;4.80;;;1.47;;
4939;SDS011;2485;49.326;7.214;2023-03-11T12:54:46;4.27;;;1.60;;
4939;SDS011;2485;49.326;7.214;2023-03-11T12:57:26;3.23;;;1.30;;
4939;SDS011;2485;49.326;7.214;2023-03-11T13:00:03;7.23;;;1.30;;
4939;SDS011;2485;49.326;7.214;2023-03-11T13:02:42;3.40;;;1.37;;
4939;SDS011;2485;49.326;7.214;2023-03-11T13:05:16;3.00;;;1.23;;
4939;SDS011;2485;49.326;7.214;2023-03-11T13:07:47;3.80;;;1.77;;
4939;SDS011;2485;49.326;7.214;2023-03-11T13:10:19;3.10;;;1.40;;
4939;SDS011;2485;49.326;7.214;2023-03-11T13:12:46;2.97;;;1.33;;
4939;SDS011;2485;49.326;7.214;2023-03-11T13:18:18;2.30;;;1.40;;
4939;SDS011;2485;49.326;7.214;2023-03-11T13:20:49;4.40;;;1.77;;
4939;SDS011;2485;49.326;7.214;2023-03-11T13:23:26;2.07;;;1.10;;
4939;SDS011;2485;49.326;7.214;2023-03-11T13:26:11;2.73;;;1.40;;
4939;SDS011;2485;49.326;7.214;2023-03-11T13:28:50;2.80;;;1.47;;
4939;SDS011;2485;49.326;7.214;2023-03-11T13:31:24;2.73;;;1.10;;
4939;SDS011;2485;49.326;7.214;2023-03-11T13:33:55;3.20;;;1.37;;
4939;SDS011;2485;49.326;7.214;2023-03-11T13:36:27;4.17;;;1.30;;
4939;SDS011;2485;49.326;7.214;2023-03-11T13:39:00;3.70;;;1.40;;
4939;SDS011;2485;49.326;7.214;2023-03-11T13:41:31;1.83;;;1.00;;
4939;SDS011;2485;49.326;7.214;2023-03-11T13:44:02;2.83;;;1.23;;
4939;SDS011;2485;49.326;7.214;2023-03-11T13:46:37;2.07;;;1.20;;
4939;SDS011;2485;49.326;7.214;2023-03-11T13:49:07;4.70;;;1.20;;
4939;SDS011;2485;49.326;7.214;2023-03-11T13:51:36;1.50;;;1.30;;
4939;SDS011;2485;49.326;7.214;2023-03-11T13:54:03;3.47;;;1.60;;
4939;SDS011;2485;49.326;7.214;2023-03-11T13:56:30;1.63;;;1.30;;
4939;SDS011;2485;49.326;7.214;2023-03-11T14:01:39;5.87;;;1.77;;
4939;SDS011;2485;49.326;7.214;2023-03-11T14:04:10;3.17;;;1.90;;
4939;SDS011;2485;49.326;7.214;2023-03-11T14:06:36;3.70;;;1.53;;
4939;SDS011;2485;49.326;7.214;2023-03-11T14:09:03;3.47;;;1.57;;
4939;SDS011;2485;49.326;7.214;2023-03-11T14:11:30;2.63;;;1.53;;
4939;SDS011;2485;49.326;7.214;2023-03-11T14:13:56;2.30;;;1.40;;
4939;SDS011;2485;49.326;7.214;2023-03-11T14:16:23;1.93;;;1.40;;
4939;SDS011;2485;49.326;7.214;2023-03-11T14:19:00;4.20;;;1.57;;
4939;SDS011;2485;49.326;7.214;2023-03-11T14:21:29;3.43;;;1.30;;
4939;SDS011;2485;49.326;7.214;2023-03-11T14:23:55;6.57;;;1.83;;
4939;SDS011;2485;49.326;7.214;2023-03-11T14:26:23;3.77;;;1.50;;
4939;SDS011;2485;49.326;7.214;2023-03-11T14:28:50;4.80;;;1.60;;
4939;SDS011;2485;49.326;7.214;2023-03-11T14:31:20;3.40;;;1.40;;
4939;SDS011;2485;49.326;7.214;2023-03-11T14:33:52;3.10;;;1.77;;
4939;SDS011;2485;49.326;7.214;2023-03-11T14:36:19;7.90;;;1.97;;
4939;SDS011;2485;49.326;7.214;2023-03-11T14:38:47;1.93;;;1.27;;
4939;SDS011;2485;49.326;7.214;2023-03-11T14:41:14;2.63;;;1.40;;
4939;SDS011;2485;49.326;7.214;2023-03-11T14:43:41;5.43;;;2.80;;
4939;SDS011;2485;49.326;7.214;2023-03-11T14:46:09;6.00;;;2.27;;
4939;SDS011;2485;49.326;7.214;2023-03-11T14:48:41;3.10;;;1.97;;
4939;SDS011;2485;49.326;7.214;2023-03-11T14:51:12;3.63;;;1.30;;
4939;SDS011;2485;49.326;7.214;2023-03-11T14:53:40;5.13;;;1.50;;
4939;SDS011;2485;49.326;7.214;2023-03-11T14:56:11;3.57;;;1.50;;
4939;SDS011;2485;49.326;7.214;2023-03-11T14:58:38;4.23;;;1.27;;
4939;SDS011;2485;49.326;7.214;2023-03-11T15:01:07;4.10;;;1.27;;
4939;SDS011;2485;49.326;7.214;2023-03-11T15:03:36;4.20;;;1.67;;
4939;SDS011;2485;49.326;7.214;2023-03-11T15:06:05;7.10;;;1.50;;
4939;SDS011;2485;49.326;7.214;2023-03-11T15:08:33;2.93;;;1.77;;
4939;SDS011;2485;49.326;7.214;2023-03-11T15:11:05;2.07;;;1.50;;
4939;SDS011;2485;49.326;7.214;2023-03-11T15:13:33;4.40;;;1.40;;
4939;SDS011;2485;49.326;7.214;2023-03-11T15:16:01;4.33;;;1.80;;
4939;SDS011;2485;49.326;7.214;2023-03-11T15:18:28;10.00;;;1.80;;
4939;SDS011;2485;49.326;7.214;2023-03-11T15:21:03;3.73;;;1.83;;
4939;SDS011;2485;49.326;7.214;2023-03-11T15:23:30;5.53;;;1.43;;
4939;SDS011;2485;49.326;7.214;2023-03-11T15:25:57;3.10;;;1.53;;
4939;SDS011;2485;49.326;7.214;2023-03-11T15:28:26;3.53;;;1.90;;
4939;SDS011;2485;49.326;7.214;2023-03-11T15:33:36;2.90;;;1.30;;
4939;SDS011;2485;49.326;7.214;2023-03-11T15:36:04;7.07;;;1.67;;
4939;SDS011;2485;49.326;7.214;2023-03-11T15:38:30;2.80;;;1.20;;
4939;SDS011;2485;49.326;7.214;2023-03-11T15:40:57;3.20;;;1.20;;
4939;SDS011;2485;49.326;7.214;2023-03-11T15:43:26;5.47;;;1.40;;
4939;SDS011;2485;49.326;7.214;2023-03-11T15:45:53;4.20;;;1.47;;
4939;SDS011;2485;49.326;7.214;2023-03-11T15:48:20;2.97;;;1.37;;
4939;SDS011;2485;49.326;7.214;2023-03-11T15:50:49;3.60;;;1.30;;
4939;SDS011;2485;49.326;7.214;2023-03-11T15:53:15;5.60;;;1.77;;
4939;SDS011;2485;49.326;7.214;2023-03-11T15:55:42;10.13;;;2.57;;
4939;SDS011;2485;49.326;7.214;2023-03-11T15:58:10;6.77;;;2.40;;
4939;SDS011;2485;49.326;7.214;2023-03-11T16:00:36;5.53;;;1.50;;
4939;SDS011;2485;49.326;7.214;2023-03-11T16:03:05;7.80;;;4.20;;
4939;SDS011;2485;49.326;7.214;2023-03-11T16:05:31;6.47;;;1.50;;
4939;SDS011;2485;49.326;7.214;2023-03-11T16:07:59;5.53;;;1.80;;
4939;SDS011;2485;49.326;7.214;2023-03-11T16:10:25;5.83;;;3.07;;
4939;SDS011;2485;49.326;7.214;2023-03-11T16:12:52;4.70;;;2.10;;
4939;SDS011;2485;49.326;7.214;2023-03-11T16:15:20;4.00;;;2.30;;
4939;SDS011;2485;49.326;7.214;2023-03-11T16:17:48;3.70;;;1.77;;
4939;SDS011;2485;49.326;7.214;2023-03-11T16:20:15;3.53;;;1.40;;
4939;SDS011;2485;49.326;7.214;2023-03-11T16:22:41;2.83;;;1.43;;
4939;SDS011;2485;49.326;7.214;2023-03-11T16:25:11;6.27;;;2.23;;
4939;SDS011;2485;49.326;7.214;2023-03-11T16:27:40;5.53;;;1.93;;
4939;SDS011;2485;49.326;7.214;2023-03-11T16:30:07;3.27;;;1.30;;
4939;SDS011;2485;49.326;7.214;2023-03-11T16:32:34;1.77;;;1.20;;
4939;SDS011;2485;49.326;7.214;2023-03-11T16:35:00;6.83;;;2.43;;
4939;SDS011;2485;49.326;7.214;2023-03-11T16:37:26;13.73;;;4.13;;
4939;SDS011;2485;49.326;7.214;2023-03-11T16:39:53;3.00;;;1.90;;
4939;SDS011;2485;49.326;7.214;2023-03-11T16:42:21;5.67;;;1.73;;
4939;SDS011;2485;49.326;7.214;2023-03-11T16:44:48;5.33;;;1.70;;
4939;SDS011;2485;49.326;7.214;2023-03-11T16:47:14;5.10;;;2.00;;
4939;SDS011;2485;49.326;7.214;2023-03-11T16:49:41;9.80;;;4.53;;
4939;SDS011;2485;49.326;7.214;2023-03-11T16:52:07;3.07;;;1.80;;
4939;SDS011;2485;49.326;7.214;2023-03-11T16:54:33;6.33;;;3.53;;
4939;SDS011;2485;49.326;7.214;2023-03-11T16:57:00;1.67;;;1.37;;
4939;SDS011;2485;49.326;7.214;2023-03-11T16:59:28;10.07;;;2.30;;
4939;SDS011;2485;49.326;7.214;2023-03-11T17:01:54;1.33;;;1.10;;
4939;SDS011;2485;49.326;7.214;2023-03-11T17:04:21;2.07;;;1.17;;
4939;SDS011;2485;49.326;7.214;2023-03-11T17:06:47;6.37;;;1.90;;
4939;SDS011;2485;49.326;7.214;2023-03-11T17:09:14;4.63;;;1.43;;
4939;SDS011;2485;49.326;7.214;2023-03-11T17:11:42;3.67;;;1.87;;
4939;SDS011;2485;49.326;7.214;2023-03-11T17:14:08;5.33;;;1.70;;
4939;SDS011;2485;49.326;7.214;2023-03-11T17:16:36;3.40;;;1.30;;
4939;SDS011;2485;49.326;7.214;2023-03-11T17:19:02;3.97;;;1.63;;
4939;SDS011;2485;49.326;7.214;2023-03-11T17:21:29;2.27;;;1.33;;
4939;SDS011;2485;49.326;7.214;2023-03-11T17:23:55;2.67;;;1.23;;
4939;SDS011;2485;49.326;7.214;2023-03-11T17:26:23;7.40;;;1.50;;
4939;SDS011;2485;49.326;7.214;2023-03-11T17:28:51;3.00;;;1.60;;
4939;SDS011;2485;49.326;7.214;2023-03-11T17:31:18;11.33;;;1.60;;
4939;SDS011;2485;49.326;7.214;2023-03-11T17:33:45;1.30;;;1.17;;
4939;SDS011;2485;49.326;7.214;2023-03-11T17:36:12;3.83;;;1.60;;
4939;SDS011;2485;49.326;7.214;2023-03-11T17:38:39;3.53;;;1.50;;
4939;SDS011;2485;49.326;7.214;2023-03-11T17:41:06;5.70;;;1.60;;
4939;SDS011;2485;49.326;7.214;2023-03-11T17:43:32;4.20;;;1.63;;
4939;SDS011;2485;49.326;7.214;2023-03-11T17:45:59;3.33;;;1.40;;
4939;SDS011;2485;49.326;7.214;2023-03-11T17:48:25;2.60;;;1.13;;
4939;SDS011;2485;49.326;7.214;2023-03-11T17:50:53;5.10;;;1.27;;
4939;SDS011;2485;49.326;7.214;2023-03-11T17:53:19;3.53;;;1.80;;
4939;SDS011;2485;49.326;7.214;2023-03-11T17:55:46;3.17;;;1.20;;
4939;SDS011;2485;49.326;7.214;2023-03-11T17:58:12;3.67;;;1.53;;
4939;SDS011;2485;49.326;7.214;2023-03-11T18:00:38;3.43;;;1.90;;
4939;SDS011;2485;49.326;7.214;2023-03-11T18:03:05;5.93;;;2.43;;
4939;SDS011;2485;49.326;7.214;2023-03-11T18:05:31;7.93;;;3.60;;
4939;SDS011;2485;49.326;7.214;2023-03-11T18:07:59;13.30;;;4.40;;
4939;SDS011;2485;49.326;7.214;2023-03-11T18:10:25;8.60;;;4.03;;
4939;SDS011;2485;49.326;7.214;2023-03-11T18:12:51;10.50;;;3.70;;
4939;SDS011;2485;49.326;7.214;2023-03-11T18:15:18;13.33;;;5.47;;
4939;SDS011;2485;49.326;7.214;2023-03-11T18:17:46;25.57;;;8.90;;
4939;SDS011;2485;49.326;7.214;2023-03-11T18:20:13;10.63;;;5.60;;
4939;SDS011;2485;49.326;7.214;2023-03-11T18:22:39;9.10;;;5.20;;
4939;SDS011;2485;49.326;7.214;2023-03-11T18:25:08;16.23;;;5.60;;
4939;SDS011;2485;49.326;7.214;2023-03-11T18:27:34;16.93;;;6.47;;
4939;SDS011;2485;49.326;7.214;2023-03-11T18:30:01;19.83;;;9.37;;
4939;SDS011;2485;49.326;7.214;2023-03-11T18:32:28;23.03;;;10.03;;
4939;SDS011;2485;49.326;7.214;2023-03-11T18:34:54;24.97;;;10.70;;
4939;SDS011;2485;49.326;7.214;2023-03-11T18:37:20;21.57;;;10.47;;
4939;SDS011;2485;49.326;7.214;2023-03-11T18:39:47;17.80;;;8.80;;
4939;SDS011;2485;49.326;7.214;2023-03-11T18:42:14;17.70;;;8.70;;
4939;SDS011;2485;49.326;7.214;2023-03-11T18:44:41;20.17;;;9.73;;
4939;SDS011;2485;49.326;7.214;2023-03-11T18:47:07;19.80;;;6.80;;
4939;SDS011;2485;49.326;7.214;2023-03-11T18:49:33;22.20;;;8.50;;
4939;SDS011;2485;49.326;7.214;2023-03-11T18:52:00;12.93;;;7.00;;
4939;SDS011;2485;49.326;7.214;2023-03-11T18:54:26;16.27;;;6.60;;
4939;SDS011;2485;49.326;7.214;2023-03-11T18:56:52;13.90;;;5.80;;
4939;SDS011;2485;49.326;7.214;2023-03-11T18:59:20;11.43;;;5.97;;
4939;SDS011;2485;49.326;7.214;2023-03-11T19:01:47;14.30;;;7.27;;
4939;SDS011;2485;49.326;7.214;2023-03-11T19:04:14;11.87;;;6.03;;
4939;SDS011;2485;49.326;7.214;2023-03-11T19:06:40;9.37;;;5.17;;
4939;SDS011;2485;49.326;7.214;2023-03-11T19:09:07;14.10;;;6.57;;
4939;SDS011;2485;49.326;7.214;2023-03-11T19:11:35;47.97;;;18.90;;
4939;SDS011;2485;49.326;7.214;2023-03-11T19:14:02;24.70;;;12.17;;
4939;SDS011;2485;49.326;7.214;2023-03-11T19:16:29;17.57;;;8.40;;
4939;SDS011;2485;49.326;7.214;2023-03-11T19:18:56;7.73;;;4.90;;
4939;SDS011;2485;49.326;7.214;2023-03-11T19:21:22;7.90;;;4.30;;
4939;SDS011;2485;49.326;7.214;2023-03-11T19:23:49;9.70;;;4.27;;
4939;SDS011;2485;49.326;7.214;2023-03-11T19:26:19;9.97;;;3.67;;
4939;SDS011;2485;49.326;7.214;2023-03-11T19:28:45;8.53;;;3.57;;
4939;SDS011;2485;49.326;7.214;2023-03-11T19:31:11;6.23;;;2.90;;
4939;SDS011;2485;49.326;7.214;2023-03-11T19:33:40;6.90;;;3.13;;
4939;SDS011;2485;49.326;7.214;2023-03-11T19:36:06;10.67;;;3.10;;
4939;SDS011;2485;49.326;7.214;2023-03-11T19:38:33;3.60;;;1.90;;
4939;SDS011;2485;49.326;7.214;2023-03-11T19:41:00;3.63;;;1.70;;
4939;SDS011;2485;49.326;7.214;2023-03-11T19:43:27;3.93;;;1.77;;
4939;SDS011;2485;49.326;7.214;2023-03-11T19:45:53;7.57;;;3.27;;
4939;SDS011;2485;49.326;7.214;2023-03-11T19:48:20;12.47;;;2.17;;
4939;SDS011;2485;49.326;7.214;2023-03-11T19:50:48;10.57;;;3.17;;
4939;SDS011;2485;49.326;7.214;2023-03-11T19:53:14;5.30;;;3.10;;
4939;SDS011;2485;49.326;7.214;2023-03-11T19:55:41;5.37;;;2.47;;
4939;SDS011;2485;49.326;7.214;2023-03-11T19:58:07;3.07;;;1.90;;
4939;SDS011;2485;49.326;7.214;2023-03-11T20:00:34;3.50;;;2.53;;
4939;SDS011;2485;49.326;7.214;2023-03-11T20:03:00;10.20;;;2.80;;
4939;SDS011;2485;49.326;7.214;2023-03-11T20:05:26;3.73;;;2.30;;
4939;SDS011;2485;49.326;7.214;2023-03-11T20:07:54;4.57;;;2.27;;
4939;SDS011;2485;49.326;7.214;2023-03-11T20:10:20;7.30;;;3.27;;
4939;SDS011;2485;49.326;7.214;2023-03-11T20:12:47;5.57;;;2.90;;
4939;SDS011;2485;49.326;7.214;2023-03-11T20:15:13;6.17;;;3.13;;
4939;SDS011;2485;49.326;7.214;2023-03-11T20:17:40;42.20;;;12.10;;
4939;SDS011;2485;49.326;7.214;2023-03-11T20:20:06;40.73;;;12.53;;
4939;SDS011;2485;49.326;7.214;2023-03-11T20:22:33;35.20;;;11.90;;
4939;SDS011;2485;49.326;7.214;2023-03-11T20:25:01;32.57;;;12.10;;
4939;SDS011;2485;49.326;7.214;2023-03-11T20:27:27;23.20;;;7.90;;
4939;SDS011;2485;49.326;7.214;2023-03-11T20:29:54;16.63;;;8.30;;
4939;SDS011;2485;49.326;7.214;2023-03-11T20:32:20;24.10;;;8.57;;
4939;SDS011;2485;49.326;7.214;2023-03-11T20:34:47;19.67;;;10.03;;
4939;SDS011;2485;49.326;7.214;2023-03-11T20:37:13;21.73;;;8.40;;
4939;SDS011;2485;49.326;7.214;2023-03-11T20:39:39;13.83;;;7.10;;
4939;SDS011;2485;49.326;7.214;2023-03-11T20:42:07;20.40;;;9.33;;
4939;SDS011;2485;49.326;7.214;2023-03-11T20:44:33;29.00;;;11.63;;
4939;SDS011;2485;49.326;7.214;2023-03-11T20:47:00;48.83;;;17.87;;
4939;SDS011;2485;49.326;7.214;2023-03-11T20:49:26;66.03;;;24.67;;
4939;SDS011;2485;49.326;7.214;2023-03-11T20:51:53;45.37;;;18.10;;
4939;SDS011;2485;49.326;7.214;2023-03-11T20:54:19;41.93;;;16.73;;
4939;SDS011;2485;49.326;7.214;2023-03-11T20:56:45;49.10;;;18.63;;
4939;SDS011;2485;49.326;7.214;2023-03-11T20:59:14;75.67;;;28.30;;
4939;SDS011;2485;49.326;7.214;2023-03-11T21:01:40;62.10;;;21.97;;
4939;SDS011;2485;49.326;7.214;2023-03-11T21:04:07;43.77;;;17.00;;
4939;SDS011;2485;49.326;7.214;2023-03-11T21:06:35;45.53;;;16.00;;
4939;SDS011;2485;49.326;7.214;2023-03-11T21:09:02;36.50;;;14.60;;
4939;SDS011;2485;49.326;7.214;2023-03-11T21:11:29;31.77;;;9.73;;
4939;SDS011;2485;49.326;7.214;2023-03-11T21:13:56;25.77;;;9.30;;
4939;SDS011;2485;49.326;7.214;2023-03-11T21:16:24;13.83;;;7.03;;
4939;SDS011;2485;49.326;7.214;2023-03-11T21:18:52;20.10;;;9.50;;
4939;SDS011;2485;49.326;7.214;2023-03-11T21:21:18;23.57;;;9.97;;
4939;SDS011;2485;49.326;7.214;2023-03-11T21:23:44;34.30;;;11.57;;
4939;SDS011;2485;49.326;7.214;2023-03-11T21:26:11;43.93;;;14.40;;
4939;SDS011;2485;49.326;7.214;2023-03-11T21:28:38;41.40;;;15.27;;
4939;SDS011;2485;49.326;7.214;2023-03-11T21:31:06;33.87;;;13.17;;
4939;SDS011;2485;49.326;7.214;2023-03-11T21:33:36;36.77;;;15.33;;
4939;SDS011;2485;49.326;7.214;2023-03-11T21:36:02;35.50;;;13.90;;
4939;SDS011;2485;49.326;7.214;2023-03-11T21:38:29;34.43;;;13.87;;
4939;SDS011;2485;49.326;7.214;2023-03-11T21:41:02;23.20;;;11.03;;
4939;SDS011;2485;49.326;7.214;2023-03-11T21:43:29;22.73;;;11.10;;
4939;SDS011;2485;49.326;7.214;2023-03-11T21:45:56;24.23;;;12.20;;
4939;SDS011;2485;49.326;7.214;2023-03-11T21:48:22;20.13;;;10.20;;
4939;SDS011;2485;49.326;7.214;2023-03-11T21:50:50;30.87;;;13.87;;
4939;SDS011;2485;49.326;7.214;2023-03-11T21:53:16;19.47;;;9.23;;
4939;SDS011;2485;49.326;7.214;2023-03-11T21:55:43;13.17;;;7.23;;
4939;SDS011;2485;49.326;7.214;2023-03-11T21:58:11;15.57;;;7.00;;
4939;SDS011;2485;49.326;7.214;2023-03-11T22:00:37;15.13;;;6.53;;
4939;SDS011;2485;49.326;7.214;2023-03-11T22:03:03;19.17;;;8.47;;
4939;SDS011;2485;49.326;7.214;2023-03-11T22:05:30;23.03;;;8.93;;
4939;SDS011;2485;49.326;7.214;2023-03-11T22:07:57;53.07;;;20.53;;
4939;SDS011;2485;49.326;7.214;2023-03-11T22:10:24;67.50;;;25.07;;
4939;SDS011;2485;49.326;7.214;2023-03-11T22:12:50;60.17;;;22.20;;
4939;SDS011;2485;49.326;7.214;2023-03-11T22:15:16;70.93;;;25.70;;
4939;SDS011;2485;49.326;7.214;2023-03-11T22:17:43;48.10;;;17.20;;
4939;SDS011;2485;49.326;7.214;2023-03-11T22:20:10;59.37;;;20.53;;
4939;SDS011;2485;49.326;7.214;2023-03-11T22:22:37;42.03;;;17.40;;